Aérodrome :







RETROUVEZ-NOUS SUR...

 
LOGIN :

S'inscrire | Disclaimer

   EN    FR    IT 

 









Légende :    VFR   VFR Marginal   IFR   IFR Intensif   IFR Très Intensif
Visi : 
Plafond : 
>= 8 km
>= 3000ft
5 à 8 km
1000 à 3000 ft
1500m à 5 km
500 à 1000 ft
800 à 1500m
200 à 500 ft
< 800m
< 200 ft
Symboles :   Orages  Brouillard  Fortes neiges  Fortes précipitations  Vent > 20 kt






- Altitude de l'aérodrome : 732 ft


KMVL - Morrisville Stowe State

DERNIER METAR :
  • 120454Z AUTO 00000KT 4SM -SN BR OVC027 M05/M07 A2994 RMK AO2 UPB51E54SNE51B54 SLP149 P0000 T10501067 400171056

METARs EXPIRÉS :
  • 120437Z AUTO 00000KT 3SM -SN BR FEW009 OVC029 M05/M07 A2995 RMK AO2 P0000 T10501067
  • 120426Z AUTO 35003KT 3SM -SN BR SCT009 OVC031 M05/M07 A2996 RMK AO2 P0000 T10501067
  • 120359Z AUTO 00000KT 2SM -SN BR FEW006 SCT012 OVC035 M05/M06 A2997 RMK AO2 P0000 T10501061
  • 120354Z AUTO 00000KT 1 3/4SM -SN BR FEW006 BKN014 OVC035 M05/M07 A2997 RMK AO2 SLP162 P0000 T10501067
  • 120342Z AUTO 00000KT 1SM -SN BR FEW008 BKN014 OVC027 M05/M07 A2999 RMK AO2 P0000 T10501067
  • 120325Z AUTO 34003KT 2SM -SN BR FEW008 BKN018 OVC026 M05/M07 A3001 RMK AO2 P0000 T10501067
  • 120259Z AUTO 00000KT 1 3/4SM -SN BR SCT010 OVC020 M05/M06 A3001 RMK AO2 P0000 T10501061
  • 120249Z AUTO 01003KT 2 1/2SM -SN BR BKN010 BKN023 OVC036 M05/M07 A3002 RMK AO2 P0000

TAF N/A



MET'MAP, la Météo Aéronautique d'un coup d'oeil ! - Copyright ORBIFLY Décembre 2007 - Disclaimer

ORBIFLY MET'MAP TEAM :

Programmation & Développement : Alexandra Zaïnal
Conception & Développement : Baudouin d'Aumeries
Co-Programmation & Développement : Marc-Olivier Méhu
Soutien technique & logistique : Manuel Goepfert

Contact : metmap@orbifly.com




SOURCES & CREDITS :

   NOAA